createdAt,value
2022-09-07T00:00:42.816Z,16.24
2022-09-07T00:03:44.897Z,16.23
2022-09-07T00:06:46.906Z,16.27
2022-09-07T00:09:48.912Z,16.30
2022-09-07T00:12:51.522Z,16.35
2022-09-07T00:15:53.652Z,16.40
2022-09-07T00:18:59.425Z,16.37
2022-09-07T00:22:01.452Z,16.30
2022-09-07T00:25:04.076Z,16.16
2022-09-07T00:28:08.089Z,16.05
2022-09-07T00:31:14.305Z,16.07
2022-09-07T00:34:16.313Z,16.11
2022-09-07T00:37:18.495Z,16.04
2022-09-07T00:40:20.501Z,15.91
2022-09-07T00:43:40.083Z,15.82
2022-09-07T00:46:42.616Z,15.80
2022-09-07T00:49:49.479Z,15.74
2022-09-07T00:53:05.257Z,15.76
2022-09-07T00:56:09.608Z,15.76
2022-09-07T00:59:14.438Z,15.77
2022-09-07T01:02:17.326Z,15.83
2022-09-07T01:05:27.628Z,15.76
2022-09-07T01:08:30.393Z,15.77
2022-09-07T01:11:34.261Z,15.67
2022-09-07T01:14:40.983Z,15.65
2022-09-07T01:18:00.759Z,15.61
2022-09-07T01:21:33.113Z,15.61
2022-09-07T01:24:44.493Z,15.63
2022-09-07T01:27:52.135Z,15.58
2022-09-07T01:31:01.532Z,15.52
2022-09-07T01:34:23.161Z,15.52
2022-09-07T01:37:42.821Z,15.55
2022-09-07T01:41:12.969Z,15.58
2022-09-07T01:44:41.163Z,15.57
2022-09-07T01:47:52.445Z,15.56
2022-09-07T01:51:01.442Z,15.54
2022-09-07T01:54:14.637Z,15.54
2022-09-07T01:57:30.271Z,15.52
2022-09-07T02:00:35.401Z,15.57
2022-09-07T02:03:47.863Z,15.58
2022-09-07T02:07:06.599Z,15.60
2022-09-07T02:10:37.173Z,15.60
2022-09-07T02:13:51.590Z,15.57
2022-09-07T02:16:59.763Z,15.58
2022-09-07T02:20:17.641Z,15.56
2022-09-07T02:23:24.738Z,15.61
2022-09-07T02:26:28.603Z,15.64
2022-09-07T02:29:31.134Z,15.66
2022-09-07T02:32:33.289Z,15.64
2022-09-07T02:35:35.655Z,15.64
2022-09-07T02:38:38.646Z,15.63
2022-09-07T02:41:43.369Z,15.63
2022-09-07T02:44:45.558Z,15.61
2022-09-07T02:47:56.394Z,15.64
2022-09-07T02:51:31.955Z,15.64
2022-09-07T02:54:55.333Z,15.63
2022-09-07T02:58:32.090Z,15.58
2022-09-07T03:02:04.920Z,15.52
2022-09-07T03:05:39.147Z,15.50
2022-09-07T03:08:48.121Z,15.49
2022-09-07T03:11:50.673Z,15.45
2022-09-07T03:14:52.715Z,15.34
2022-09-07T03:17:54.713Z,15.27
2022-09-07T03:20:56.785Z,15.19
2022-09-07T03:23:58.794Z,15.13
2022-09-07T03:27:00.830Z,15.09
2022-09-07T03:30:07.353Z,14.95
2022-09-07T03:33:10.775Z,14.80
2022-09-07T03:36:12.771Z,14.78
2022-09-07T03:39:14.815Z,14.74
2022-09-07T03:42:16.867Z,14.66
2022-09-07T03:45:18.985Z,14.65
2022-09-07T03:48:21.022Z,14.58
2022-09-07T03:51:23.373Z,14.58
2022-09-07T03:54:25.456Z,14.52
2022-09-07T03:57:27.496Z,14.51
2022-09-07T04:00:29.521Z,14.48
2022-09-07T04:03:31.551Z,14.39
2022-09-07T04:06:33.605Z,14.36
2022-09-07T04:09:35.627Z,14.50
2022-09-07T04:12:37.693Z,14.44
2022-09-07T04:15:39.716Z,14.41
2022-09-07T04:18:41.728Z,14.31
2022-09-07T04:21:43.883Z,14.23
2022-09-07T04:24:45.888Z,14.20
2022-09-07T04:27:47.921Z,14.10
2022-09-07T04:30:49.969Z,14.20
2022-09-07T04:33:52.718Z,14.19
2022-09-07T04:36:54.922Z,14.23
2022-09-07T04:39:56.970Z,14.22
2022-09-07T04:42:59.050Z,14.18
2022-09-07T04:46:06.142Z,14.20
2022-09-07T04:49:10.345Z,14.21
2022-09-07T04:52:12.225Z,14.13
2022-09-07T04:55:14.206Z,14.11
2022-09-07T04:58:16.219Z,14.15
2022-09-07T05:01:20.984Z,14.18
2022-09-07T05:04:23.050Z,14.12
2022-09-07T05:07:25.121Z,14.23
2022-09-07T05:10:27.142Z,14.18
2022-09-07T05:13:29.968Z,14.18
2022-09-07T05:16:32.105Z,14.16
2022-09-07T05:19:34.361Z,14.11
2022-09-07T05:22:36.458Z,14.13
2022-09-07T05:25:46.406Z,14.14
2022-09-07T05:28:48.538Z,14.31
2022-09-07T05:31:50.600Z,14.37
2022-09-07T05:34:53.101Z,14.38
2022-09-07T05:37:55.198Z,14.38
2022-09-07T05:40:57.937Z,14.40
2022-09-07T05:47:22.178Z,14.46
2022-09-07T05:50:24.177Z,14.52
2022-09-07T05:53:26.364Z,14.58
2022-09-07T05:56:28.402Z,14.60
2022-09-07T05:59:30.465Z,14.66
2022-09-07T06:02:35.474Z,14.73
2022-09-07T06:05:41.056Z,14.81
2022-09-07T06:08:51.982Z,14.92
2022-09-07T06:11:54.001Z,15.02
2022-09-07T06:14:56.043Z,15.13
2022-09-07T06:17:58.057Z,15.23
2022-09-07T06:21:07.898Z,15.25
2022-09-07T06:24:09.930Z,15.32
2022-09-07T06:27:12.412Z,15.45
2022-09-07T06:30:14.476Z,15.53
2022-09-07T06:33:18.148Z,15.63
2022-09-07T06:36:25.773Z,15.70
2022-09-07T06:39:27.800Z,15.79
2022-09-07T06:42:29.820Z,15.93
2022-09-07T06:45:32.772Z,16.07
2022-09-07T06:48:34.813Z,16.13
2022-09-07T06:51:36.864Z,16.32
2022-09-07T06:58:00.851Z,16.63
2022-09-07T07:01:08.924Z,16.77
2022-09-07T07:04:10.970Z,16.96
2022-09-07T07:07:13.524Z,17.07
2022-09-07T07:10:15.572Z,17.17
2022-09-07T07:16:20.068Z,17.53
2022-09-07T07:19:22.107Z,17.53
2022-09-07T07:22:45.526Z,17.64
2022-09-07T07:25:46.148Z,18.04
2022-09-07T07:29:06.049Z,18.71
2022-09-07T07:32:08.147Z,18.50
2022-09-07T07:35:11.017Z,18.03
2022-09-07T07:48:18.785Z,20.14
2022-09-07T07:51:21.112Z,19.59
2022-09-07T07:54:23.103Z,19.76
2022-09-07T07:57:25.059Z,19.35
2022-09-07T08:00:37.700Z,19.44
2022-09-07T08:03:46.301Z,19.86
2022-09-07T08:06:48.401Z,19.63
2022-09-07T08:09:50.374Z,19.01
2022-09-07T08:12:53.239Z,18.96
2022-09-07T08:15:57.818Z,19.78
2022-09-07T08:19:00.080Z,20.49
2022-09-07T08:22:02.154Z,19.97
2022-09-07T08:25:04.412Z,19.83
2022-09-07T08:28:06.490Z,20.47
2022-09-07T08:31:11.063Z,21.21
2022-09-07T08:34:13.133Z,22.17
2022-09-07T08:37:15.123Z,21.68
2022-09-07T08:40:18.221Z,21.75
2022-09-07T08:43:49.211Z,21.80
2022-09-07T08:47:07.676Z,21.52
2022-09-07T08:50:22.065Z,21.23
2022-09-07T08:53:24.847Z,22.09
2022-09-07T08:56:40.431Z,22.54
2022-09-07T09:00:05.292Z,23.37
2022-09-07T09:03:29.843Z,22.47
2022-09-07T09:06:50.564Z,22.95
2022-09-07T09:10:08.681Z,23.81
2022-09-07T09:13:10.576Z,23.78
2022-09-07T09:16:20.129Z,23.55
2022-09-07T09:19:58.374Z,23.05
2022-09-07T09:23:09.889Z,23.16
2022-09-07T09:26:25.243Z,22.74
2022-09-07T09:29:27.205Z,22.83
2022-09-07T09:32:37.195Z,23.14
2022-09-07T09:35:40.529Z,23.76
2022-09-07T09:38:42.362Z,23.13
2022-09-07T09:41:44.269Z,23.68
2022-09-07T09:44:46.746Z,23.15
2022-09-07T09:47:51.207Z,23.63
2022-09-07T09:54:18.353Z,24.39
2022-09-07T09:59:04.652Z,24.56
2022-09-07T10:01:33.542Z,24.39
2022-09-07T10:04:36.774Z,24.81
2022-09-07T10:07:38.882Z,24.18
2022-09-07T10:10:50.875Z,24.54
2022-09-07T10:13:56.285Z,24.79
2022-09-07T10:16:59.911Z,23.71
2022-09-07T10:20:21.780Z,23.69
2022-09-07T10:23:24.426Z,23.27
2022-09-07T10:26:37.258Z,23.66
2022-09-07T10:29:39.176Z,24.04
2022-09-07T10:32:52.991Z,23.74
2022-09-07T10:36:15.060Z,23.37
2022-09-07T10:39:22.989Z,24.23
2022-09-07T10:42:28.445Z,23.14
2022-09-07T10:46:08.063Z,23.66
2022-09-07T10:49:23.519Z,23.80
2022-09-07T10:52:51.792Z,23.76
2022-09-07T10:56:00.020Z,23.41
2022-09-07T11:00:07.507Z,22.53
2022-09-07T11:06:53.682Z,22.35
2022-09-07T11:10:29.618Z,23.00
2022-09-07T11:13:44.947Z,23.34
2022-09-07T11:17:01.182Z,23.17
2022-09-07T11:20:38.330Z,23.80
2022-09-07T11:23:44.883Z,23.65
2022-09-07T11:26:59.569Z,23.62
2022-09-07T11:30:05.981Z,24.50
2022-09-07T11:33:21.688Z,24.68
2022-09-07T11:36:26.407Z,24.19
2022-09-07T11:39:34.708Z,24.44
2022-09-07T11:42:53.009Z,23.65
2022-09-07T11:45:59.309Z,23.39
2022-09-07T11:49:03.396Z,23.73
2022-09-07T11:52:38.218Z,23.89
2022-09-07T11:55:45.949Z,24.58
2022-09-07T11:59:19.051Z,24.82
2022-09-07T12:02:59.423Z,24.34
2022-09-07T12:06:07.999Z,24.33
2022-09-07T12:09:25.254Z,24.20
2022-09-07T12:12:58.193Z,23.98
2022-09-07T12:16:05.036Z,24.34
2022-09-07T12:19:12.386Z,24.20
2022-09-07T12:22:22.079Z,24.23
2022-09-07T12:25:24.530Z,24.17
2022-09-07T12:28:26.448Z,24.52
2022-09-07T12:32:07.235Z,24.55
2022-09-07T12:35:28.810Z,24.41
2022-09-07T12:38:30.875Z,24.91
2022-09-07T12:41:46.734Z,24.92
2022-09-07T12:45:27.967Z,24.87
2022-09-07T12:48:58.821Z,24.90
2022-09-07T12:52:15.817Z,25.09
2022-09-07T12:55:29.198Z,25.16
2022-09-07T12:59:00.539Z,24.10
2022-09-07T13:02:28.161Z,23.88
2022-09-07T13:05:43.746Z,24.71
2022-09-07T13:09:25.548Z,24.76
2022-09-07T13:12:57.746Z,25.20
2022-09-07T13:16:06.059Z,24.26
2022-09-07T13:19:13.159Z,23.87
2022-09-07T13:22:35.386Z,24.30
2022-09-07T13:25:37.458Z,25.04
2022-09-07T13:28:57.671Z,24.32
2022-09-07T13:32:09.477Z,23.99
2022-09-07T13:35:14.584Z,23.51
2022-09-07T13:38:17.086Z,23.98
2022-09-07T13:41:24.553Z,24.47
2022-09-07T13:44:31.693Z,25.42
2022-09-07T13:47:50.402Z,25.56
2022-09-07T13:51:04.424Z,25.15
2022-09-07T13:54:14.089Z,24.50
2022-09-07T13:57:27.257Z,24.51
2022-09-07T14:00:29.734Z,24.53
2022-09-07T14:03:38.693Z,24.08
2022-09-07T14:06:40.670Z,24.31
2022-09-07T14:10:10.394Z,24.48
2022-09-07T14:13:12.629Z,24.44
2022-09-07T14:16:15.717Z,24.21
2022-09-07T14:19:45.225Z,23.85
2022-09-07T14:22:52.982Z,23.63
2022-09-07T14:26:19.919Z,24.42
2022-09-07T14:29:27.522Z,24.68
2022-09-07T14:32:29.600Z,24.62
2022-09-07T14:35:34.283Z,24.33
2022-09-07T14:42:01.663Z,24.32
2022-09-07T14:45:21.883Z,24.27
2022-09-07T14:48:31.443Z,24.34
2022-09-07T14:51:36.764Z,24.20
2022-09-07T14:54:39.736Z,24.16
2022-09-07T14:57:41.697Z,23.92
2022-09-07T15:00:46.268Z,23.82
2022-09-07T15:03:48.565Z,23.49
2022-09-07T15:07:05.838Z,23.29
2022-09-07T15:10:23.655Z,23.16
2022-09-07T15:13:30.745Z,23.45
2022-09-07T15:16:36.599Z,24.24
2022-09-07T15:19:38.617Z,24.59
2022-09-07T15:22:40.584Z,24.38
2022-09-07T15:25:49.627Z,24.03
2022-09-07T15:29:08.699Z,24.08
2022-09-07T15:32:11.009Z,24.00
2022-09-07T15:35:13.056Z,24.00
2022-09-07T15:41:37.713Z,23.66
2022-09-07T15:44:39.687Z,23.47
2022-09-07T15:47:47.049Z,23.53
2022-09-07T15:50:50.618Z,23.49
2022-09-07T15:54:11.910Z,23.39
2022-09-07T16:00:37.141Z,23.36
2022-09-07T16:03:39.195Z,23.19
2022-09-07T16:06:41.537Z,23.16
2022-09-07T16:09:43.522Z,22.89
2022-09-07T16:13:02.345Z,22.87
2022-09-07T16:16:06.173Z,23.13
2022-09-07T16:19:13.086Z,23.34
2022-09-07T16:23:13.224Z,23.31
2022-09-07T16:25:37.922Z,23.09
2022-09-07T16:28:42.073Z,22.92
2022-09-07T16:35:06.326Z,22.64
2022-09-07T16:41:31.863Z,22.60
2022-09-07T16:44:33.712Z,22.49
2022-09-07T16:47:35.628Z,22.42
2022-09-07T16:50:37.609Z,22.40
2022-09-07T16:53:39.839Z,22.25
2022-09-07T16:56:41.867Z,22.13
2022-09-07T16:59:44.865Z,22.09
2022-09-07T17:02:46.845Z,21.96
2022-09-07T17:05:48.902Z,21.88
2022-09-07T17:08:52.001Z,21.81
2022-09-07T17:11:53.993Z,21.69
2022-09-07T17:14:55.965Z,21.68
2022-09-07T17:17:57.945Z,21.64
2022-09-07T17:21:00.433Z,21.56
2022-09-07T17:24:04.408Z,21.48
2022-09-07T17:27:06.549Z,21.42
2022-09-07T17:30:08.866Z,21.30
2022-09-07T17:33:10.964Z,21.21
2022-09-07T17:36:14.568Z,21.08
2022-09-07T17:39:18.482Z,20.99
2022-09-07T17:42:21.315Z,20.85
2022-09-07T17:45:23.589Z,20.70
2022-09-07T17:48:25.619Z,20.52
2022-09-07T17:51:30.493Z,20.42
2022-09-07T17:54:32.481Z,20.33
2022-09-07T17:57:34.592Z,20.23
2022-09-07T18:00:36.638Z,20.15
2022-09-07T18:03:38.866Z,20.06
2022-09-07T18:06:40.936Z,19.99
2022-09-07T18:09:42.931Z,19.87
2022-09-07T18:12:44.891Z,19.75
2022-09-07T18:15:47.903Z,19.59
2022-09-07T18:18:50.544Z,19.34
2022-09-07T18:21:52.508Z,19.12
2022-09-07T18:24:54.490Z,18.96
2022-09-07T18:31:20.169Z,18.69
2022-09-07T18:34:22.781Z,18.56
2022-09-07T18:37:24.744Z,18.41
2022-09-07T18:40:26.704Z,18.24
2022-09-07T18:43:32.151Z,18.17
2022-09-07T18:46:34.815Z,18.10
2022-09-07T18:49:37.396Z,18.06
2022-09-07T18:52:59.084Z,17.97
2022-09-07T18:56:02.289Z,17.84
2022-09-07T18:59:04.302Z,17.76
2022-09-07T19:02:08.401Z,17.70
2022-09-07T19:08:35.026Z,17.59
2022-09-07T19:11:39.698Z,17.62
2022-09-07T19:14:41.716Z,17.67
2022-09-07T19:17:43.703Z,17.74
2022-09-07T19:20:45.662Z,17.81
2022-09-07T19:23:55.597Z,17.85
2022-09-07T19:27:00.394Z,17.92
2022-09-07T19:30:03.148Z,17.97
2022-09-07T19:33:05.096Z,18.00
2022-09-07T19:36:07.580Z,18.07
2022-09-07T19:39:10.138Z,18.12
2022-09-07T19:42:12.113Z,18.16
2022-09-07T19:45:14.153Z,18.21
2022-09-07T19:48:16.236Z,18.22
2022-09-07T19:51:18.235Z,18.24
2022-09-07T19:54:20.221Z,18.34
2022-09-07T19:57:22.185Z,18.43
2022-09-07T20:00:24.160Z,18.45
2022-09-07T20:03:26.179Z,18.46
2022-09-07T20:06:28.422Z,18.44
2022-09-07T20:09:30.430Z,18.43
2022-09-07T20:12:32.413Z,18.41
2022-09-07T20:15:39.581Z,18.40
2022-09-07T20:18:42.398Z,18.39
2022-09-07T20:21:44.401Z,18.38
2022-09-07T20:24:46.376Z,18.33
2022-09-07T20:27:48.351Z,18.30
2022-09-07T20:30:50.476Z,18.29
2022-09-07T20:33:52.490Z,18.29
2022-09-07T20:36:54.957Z,18.26
2022-09-07T20:39:56.997Z,18.29
2022-09-07T20:42:59.037Z,18.32
2022-09-07T20:46:01.110Z,18.37
2022-09-07T20:49:03.281Z,18.40
2022-09-07T20:52:05.285Z,18.41
2022-09-07T20:55:07.600Z,18.44
2022-09-07T20:58:09.573Z,18.46
2022-09-07T21:01:14.247Z,18.47
2022-09-07T21:04:16.569Z,18.46
2022-09-07T21:07:18.561Z,18.42
2022-09-07T21:10:20.625Z,18.39
2022-09-07T21:13:22.592Z,18.40
2022-09-07T21:16:25.277Z,18.40
2022-09-07T21:19:27.340Z,18.46
2022-09-07T21:22:30.951Z,18.53
2022-09-07T21:25:32.934Z,18.54
2022-09-07T21:28:34.913Z,18.47
2022-09-07T21:31:36.968Z,18.31
2022-09-07T21:34:38.959Z,18.20
2022-09-07T21:37:40.921Z,18.13
2022-09-07T21:40:42.912Z,18.24
2022-09-07T21:43:45.288Z,18.32
2022-09-07T21:46:47.326Z,18.35
2022-09-07T21:49:49.313Z,18.28
2022-09-07T21:52:51.293Z,18.24
2022-09-07T21:56:01.505Z,18.19
2022-09-07T21:59:03.549Z,18.14
2022-09-07T22:02:05.594Z,18.15
2022-09-07T22:05:08.092Z,18.08
2022-09-07T22:08:10.071Z,18.01
2022-09-07T22:11:15.470Z,17.98
2022-09-07T22:14:17.463Z,17.90
2022-09-07T22:17:19.436Z,17.84
2022-09-07T22:20:21.535Z,17.78
2022-09-07T22:23:23.543Z,17.75
2022-09-07T22:26:27.633Z,17.66
2022-09-07T22:29:29.745Z,17.61
2022-09-07T22:32:31.686Z,17.54
2022-09-07T22:35:33.693Z,17.48
2022-09-07T22:38:35.648Z,17.42
2022-09-07T22:41:39.175Z,17.41
2022-09-07T22:44:41.159Z,17.39
2022-09-07T22:47:43.113Z,17.36
2022-09-07T22:50:45.137Z,17.34
2022-09-07T22:53:47.302Z,17.30
2022-09-07T22:56:49.264Z,17.34
2022-09-07T22:59:51.254Z,17.30
2022-09-07T23:02:53.235Z,17.32
2022-09-07T23:05:55.394Z,17.30
2022-09-07T23:08:59.338Z,17.26
2022-09-07T23:12:01.304Z,17.29
2022-09-07T23:15:03.266Z,17.39
2022-09-07T23:18:05.252Z,17.39
2022-09-07T23:21:07.874Z,17.38
2022-09-07T23:24:12.843Z,17.40
2022-09-07T23:27:14.812Z,17.36
2022-09-07T23:30:16.776Z,17.34
2022-09-07T23:33:18.793Z,17.31
2022-09-07T23:36:20.778Z,17.29
2022-09-07T23:39:22.805Z,17.30
2022-09-07T23:42:24.975Z,17.25
2022-09-07T23:45:27.195Z,17.26
2022-09-07T23:48:29.225Z,17.25
2022-09-07T23:51:31.206Z,17.28
2022-09-07T23:54:33.166Z,17.28
2022-09-07T23:57:35.205Z,17.26
